createdAt,value
2023-12-27T00:01:47.786Z,1.20
2023-12-27T00:04:15.289Z,1.90
2023-12-27T00:06:42.398Z,1.60
2023-12-27T00:09:09.461Z,1.70
2023-12-27T00:11:37.027Z,1.40
2023-12-27T00:14:04.610Z,1.77
2023-12-27T00:16:31.509Z,1.60
2023-12-27T00:18:58.592Z,2.63
2023-12-27T00:21:26.115Z,1.87
2023-12-27T00:23:53.067Z,1.73
2023-12-27T00:26:19.914Z,2.10
2023-12-27T00:28:46.706Z,1.73
2023-12-27T00:31:13.791Z,1.97
2023-12-27T00:33:40.783Z,2.90
2023-12-27T00:36:09.648Z,1.33
2023-12-27T00:38:37.364Z,1.70
2023-12-27T00:41:05.456Z,1.97
2023-12-27T00:43:32.333Z,1.30
2023-12-27T00:45:59.340Z,1.73
2023-12-27T00:48:26.441Z,1.30
2023-12-27T00:50:53.517Z,1.60
2023-12-27T00:53:20.438Z,1.57
2023-12-27T00:55:47.311Z,1.77
2023-12-27T00:58:14.194Z,1.77
2023-12-27T01:00:41.308Z,1.90
2023-12-27T01:03:09.426Z,1.23
2023-12-27T01:05:37.031Z,2.17
2023-12-27T01:08:04.364Z,1.23
2023-12-27T01:10:31.164Z,1.50
2023-12-27T01:12:58.097Z,1.43
2023-12-27T01:15:25.049Z,1.87
2023-12-27T01:17:52.076Z,1.10
2023-12-27T01:20:20.161Z,1.70
2023-12-27T01:22:48.770Z,1.87
2023-12-27T01:25:16.086Z,1.63
2023-12-27T01:27:42.937Z,1.80
2023-12-27T01:30:10.466Z,1.37
2023-12-27T01:32:37.436Z,1.20
2023-12-27T01:35:04.745Z,1.40
2023-12-27T01:37:31.610Z,1.73
2023-12-27T01:39:58.557Z,1.87
2023-12-27T01:42:25.525Z,1.40
2023-12-27T01:44:52.357Z,1.47
2023-12-27T01:47:19.768Z,2.17
2023-12-27T01:49:47.205Z,2.17
2023-12-27T01:52:14.586Z,1.37
2023-12-27T01:54:41.460Z,1.17
2023-12-27T01:57:08.463Z,1.43
2023-12-27T01:59:35.786Z,1.33
2023-12-27T02:02:02.816Z,1.57
2023-12-27T02:04:29.988Z,2.10
2023-12-27T02:06:57.075Z,1.67
2023-12-27T02:09:24.243Z,1.30
2023-12-27T02:11:51.129Z,1.93
2023-12-27T02:14:18.004Z,2.00
2023-12-27T02:16:45.577Z,1.53
2023-12-27T02:19:19.141Z,1.57
2023-12-27T02:21:47.046Z,1.47
2023-12-27T02:24:17.148Z,1.50
2023-12-27T02:26:44.064Z,1.30
2023-12-27T02:29:11.077Z,1.53
2023-12-27T02:31:37.948Z,1.67
2023-12-27T02:34:04.997Z,2.10
2023-12-27T02:36:32.076Z,1.77
2023-12-27T02:38:58.980Z,1.70
2023-12-27T02:41:25.853Z,1.00
2023-12-27T02:43:52.700Z,1.60
2023-12-27T02:46:19.552Z,1.60
2023-12-27T02:48:46.502Z,1.30
2023-12-27T02:51:13.432Z,1.57
2023-12-27T02:53:40.241Z,1.60
2023-12-27T02:56:07.359Z,2.10
2023-12-27T02:58:34.157Z,1.20
2023-12-27T03:01:01.123Z,1.57
2023-12-27T03:03:28.003Z,1.50
2023-12-27T03:05:55.135Z,1.80
2023-12-27T03:08:22.018Z,1.67
2023-12-27T03:10:48.870Z,1.73
2023-12-27T03:13:15.728Z,1.37
2023-12-27T03:15:42.584Z,1.47
2023-12-27T03:18:09.543Z,2.57
2023-12-27T03:20:36.736Z,2.10
2023-12-27T03:23:03.669Z,1.33
2023-12-27T03:25:30.542Z,1.50
2023-12-27T03:27:57.671Z,1.40
2023-12-27T03:30:24.683Z,1.90
2023-12-27T03:32:51.646Z,1.63
2023-12-27T03:35:18.506Z,1.97
2023-12-27T03:37:46.295Z,1.60
2023-12-27T03:40:13.338Z,1.40
2023-12-27T03:42:40.160Z,2.30
2023-12-27T03:45:07.511Z,2.00
2023-12-27T03:47:34.901Z,1.73
2023-12-27T03:50:03.829Z,1.50
2023-12-27T03:52:30.772Z,1.67
2023-12-27T03:54:57.581Z,1.30
2023-12-27T03:57:24.661Z,1.80
2023-12-27T03:59:51.495Z,1.70
2023-12-27T04:02:18.545Z,2.43
2023-12-27T04:04:48.005Z,1.90
2023-12-27T04:07:14.881Z,2.17
2023-12-27T04:09:42.060Z,1.60
2023-12-27T04:12:09.300Z,2.27
2023-12-27T04:14:36.409Z,1.60
2023-12-27T04:17:03.251Z,1.90
2023-12-27T04:19:30.089Z,1.60
2023-12-27T04:21:56.978Z,2.10
2023-12-27T04:24:23.929Z,1.50
2023-12-27T04:26:50.789Z,1.60
2023-12-27T04:29:17.598Z,1.77
2023-12-27T04:31:44.394Z,2.00
2023-12-27T04:34:11.401Z,1.70
2023-12-27T04:36:38.497Z,1.80
2023-12-27T04:39:05.481Z,1.27
2023-12-27T04:41:32.319Z,2.47
2023-12-27T04:43:59.165Z,1.90
2023-12-27T04:46:26.029Z,1.70
2023-12-27T04:48:53.297Z,1.63
2023-12-27T04:51:20.302Z,1.57
2023-12-27T04:53:47.161Z,2.13
2023-12-27T04:56:13.966Z,1.83
2023-12-27T04:58:40.732Z,1.80
2023-12-27T05:01:08.972Z,1.90
2023-12-27T05:03:39.104Z,1.83
2023-12-27T05:06:09.673Z,1.93
2023-12-27T05:08:42.089Z,2.07
2023-12-27T05:11:16.605Z,1.87
2023-12-27T05:13:43.885Z,1.73
2023-12-27T05:16:15.741Z,1.70
2023-12-27T05:18:45.929Z,1.97
2023-12-27T05:21:14.263Z,1.70
2023-12-27T05:23:41.407Z,2.40
2023-12-27T05:26:08.253Z,1.33
2023-12-27T05:28:35.389Z,1.40
2023-12-27T05:31:02.568Z,1.23
2023-12-27T05:33:29.970Z,1.93
2023-12-27T05:35:58.477Z,2.00
2023-12-27T05:38:25.903Z,1.90
2023-12-27T05:40:52.816Z,1.40
2023-12-27T05:43:19.695Z,2.10
2023-12-27T05:45:46.520Z,1.90
2023-12-27T05:48:13.670Z,1.57
2023-12-27T05:50:40.600Z,1.70
2023-12-27T05:53:07.437Z,1.50
2023-12-27T05:55:34.561Z,1.73
2023-12-27T05:58:01.466Z,1.83
2023-12-27T06:00:28.310Z,1.80
2023-12-27T06:02:55.202Z,1.97
2023-12-27T06:05:23.478Z,1.93
2023-12-27T06:07:50.535Z,1.50
2023-12-27T06:10:18.650Z,2.17
2023-12-27T06:12:45.425Z,1.57
2023-12-27T06:15:12.512Z,1.80
2023-12-27T06:17:39.532Z,1.43
2023-12-27T06:20:09.038Z,2.07
2023-12-27T06:22:36.234Z,1.33
2023-12-27T06:25:03.183Z,3.47
2023-12-27T06:27:30.096Z,2.50
2023-12-27T06:29:57.033Z,1.63
2023-12-27T06:32:23.928Z,1.40
2023-12-27T06:34:50.796Z,1.50
2023-12-27T06:37:18.080Z,2.10
2023-12-27T06:39:45.095Z,2.67
2023-12-27T06:42:12.073Z,1.80
2023-12-27T06:44:38.992Z,1.77
2023-12-27T06:47:05.910Z,1.90
2023-12-27T06:49:34.886Z,2.07
2023-12-27T06:52:01.755Z,1.63
2023-12-27T06:54:28.566Z,1.93
2023-12-27T06:56:55.872Z,1.77
2023-12-27T06:59:22.705Z,1.20
2023-12-27T07:01:49.500Z,1.60
2023-12-27T07:04:16.399Z,1.90
2023-12-27T07:06:43.285Z,2.10
2023-12-27T07:09:10.895Z,2.17
2023-12-27T07:11:37.828Z,2.07
2023-12-27T07:14:04.773Z,2.30
2023-12-27T07:16:31.604Z,2.30
2023-12-27T07:18:58.629Z,1.43
2023-12-27T07:21:25.556Z,1.47
2023-12-27T07:23:52.373Z,1.77
2023-12-27T07:26:20.151Z,1.97
2023-12-27T07:28:47.197Z,1.90
2023-12-27T07:31:14.469Z,1.30
2023-12-27T07:33:41.649Z,2.80
2023-12-27T07:36:09.710Z,1.83
2023-12-27T07:38:36.632Z,1.40
2023-12-27T07:41:06.073Z,1.53
2023-12-27T07:43:32.884Z,1.60
2023-12-27T07:45:59.680Z,2.20
2023-12-27T07:48:26.711Z,2.07
2023-12-27T07:50:53.655Z,2.30
2023-12-27T07:53:21.554Z,2.80
2023-12-27T07:55:48.505Z,2.33
2023-12-27T07:58:15.354Z,2.03
2023-12-27T08:00:42.262Z,2.13
2023-12-27T08:03:10.113Z,2.20
2023-12-27T08:05:37.568Z,2.80
2023-12-27T08:08:05.360Z,2.30
2023-12-27T08:10:32.896Z,2.70
2023-12-27T08:13:01.172Z,2.27
2023-12-27T08:15:28.397Z,2.27
2023-12-27T08:17:56.331Z,2.17
2023-12-27T08:20:25.352Z,2.33
2023-12-27T08:22:52.772Z,2.20
2023-12-27T08:25:19.713Z,2.47
2023-12-27T08:27:46.812Z,2.17
2023-12-27T08:30:16.166Z,1.67
2023-12-27T08:32:43.078Z,2.40
2023-12-27T08:35:09.914Z,1.70
2023-12-27T08:37:36.793Z,2.80
2023-12-27T08:40:03.906Z,6.70
2023-12-27T08:42:30.775Z,3.93
2023-12-27T08:44:57.670Z,3.10
2023-12-27T08:47:24.486Z,2.57
2023-12-27T08:49:54.073Z,3.20
2023-12-27T08:52:21.085Z,4.07
2023-12-27T08:54:47.990Z,3.57
2023-12-27T08:57:14.932Z,2.73
2023-12-27T08:59:41.812Z,2.63
2023-12-27T09:02:08.599Z,2.80
2023-12-27T09:04:35.484Z,4.10
2023-12-27T09:07:02.345Z,3.40
2023-12-27T09:09:30.196Z,4.10
2023-12-27T09:11:57.058Z,4.57
2023-12-27T09:14:23.850Z,3.93
2023-12-27T09:16:50.629Z,2.37
2023-12-27T09:19:17.665Z,2.70
2023-12-27T09:21:48.451Z,3.60
2023-12-27T09:24:15.447Z,3.63
2023-12-27T09:26:42.401Z,3.63
2023-12-27T09:29:12.452Z,2.80
2023-12-27T09:31:39.698Z,2.17
2023-12-27T09:34:06.952Z,2.20
2023-12-27T09:36:34.063Z,2.80
2023-12-27T09:39:01.212Z,2.43
2023-12-27T09:41:28.100Z,2.33
2023-12-27T09:43:56.264Z,2.30
2023-12-27T09:46:25.612Z,2.53
2023-12-27T09:48:54.177Z,2.57
2023-12-27T09:51:26.048Z,1.83
2023-12-27T09:53:53.148Z,2.40
2023-12-27T09:56:21.385Z,1.60
2023-12-27T09:58:53.701Z,1.93
2023-12-27T10:01:26.060Z,2.60
2023-12-27T10:04:09.987Z,2.10
2023-12-27T10:06:44.587Z,1.87
2023-12-27T10:09:15.331Z,2.10
2023-12-27T10:11:44.535Z,1.90
2023-12-27T10:14:12.490Z,2.23
2023-12-27T10:16:39.300Z,2.40
2023-12-27T10:19:06.978Z,2.50
2023-12-27T10:21:44.229Z,2.63
2023-12-27T10:24:12.023Z,2.20
2023-12-27T10:26:39.110Z,1.57
2023-12-27T10:29:08.596Z,2.67
2023-12-27T10:31:35.851Z,1.87
2023-12-27T10:34:05.203Z,2.27
2023-12-27T10:36:32.644Z,2.10
2023-12-27T10:39:05.973Z,1.93
2023-12-27T10:41:38.296Z,2.03
2023-12-27T10:44:08.524Z,1.93
2023-12-27T10:46:35.804Z,2.03
2023-12-27T10:49:04.733Z,2.20
2023-12-27T10:51:32.228Z,1.83
2023-12-27T10:54:03.550Z,2.10
2023-12-27T10:56:40.314Z,2.20
2023-12-27T10:59:08.285Z,3.47
2023-12-27T11:01:36.713Z,5.00
2023-12-27T11:04:09.554Z,4.60
2023-12-27T11:06:38.602Z,2.90
2023-12-27T11:09:09.394Z,2.70
2023-12-27T11:11:40.266Z,2.77
2023-12-27T11:14:14.875Z,2.00
2023-12-27T11:16:42.187Z,2.00
2023-12-27T11:19:09.980Z,1.87
2023-12-27T11:21:38.176Z,2.20
2023-12-27T11:24:06.377Z,2.67
2023-12-27T11:26:38.018Z,2.50
2023-12-27T11:29:12.430Z,4.13
2023-12-27T11:31:43.560Z,2.57
2023-12-27T11:34:12.663Z,1.43
2023-12-27T11:36:40.002Z,1.77
2023-12-27T11:39:18.953Z,1.50
2023-12-27T11:41:46.145Z,1.93
2023-12-27T11:44:15.791Z,1.83
2023-12-27T11:46:43.750Z,2.13
2023-12-27T11:49:18.969Z,2.60
2023-12-27T11:51:46.551Z,1.57
2023-12-27T11:54:23.468Z,1.50
2023-12-27T11:56:52.926Z,2.07
2023-12-27T11:59:20.498Z,2.07
2023-12-27T12:01:50.900Z,2.10
2023-12-27T12:07:07.048Z,2.33
2023-12-27T12:09:42.761Z,2.83
2023-12-27T12:12:18.004Z,3.20
2023-12-27T12:14:46.215Z,2.30
2023-12-27T12:17:16.321Z,2.33
2023-12-27T12:19:43.504Z,2.17
2023-12-27T12:22:10.467Z,2.40
2023-12-27T12:24:37.408Z,2.20
2023-12-27T12:27:04.817Z,3.23
2023-12-27T12:29:31.773Z,1.80
2023-12-27T12:31:59.529Z,2.97
2023-12-27T12:34:27.019Z,1.40
2023-12-27T12:36:56.577Z,2.97
2023-12-27T12:39:23.502Z,2.30
2023-12-27T12:41:50.486Z,2.07
2023-12-27T12:44:18.861Z,1.93
2023-12-27T12:46:45.899Z,1.60
2023-12-27T12:49:14.569Z,2.27
2023-12-27T12:51:42.258Z,2.47
2023-12-27T12:54:09.207Z,2.27
2023-12-27T12:56:40.407Z,2.00
2023-12-27T12:59:09.054Z,2.53
2023-12-27T13:01:36.335Z,2.07
2023-12-27T13:04:06.449Z,2.20
2023-12-27T13:06:34.223Z,1.90
2023-12-27T13:09:01.780Z,2.00
2023-12-27T13:11:30.515Z,2.70
2023-12-27T13:14:00.010Z,2.30
2023-12-27T13:16:26.867Z,1.97
2023-12-27T13:18:58.929Z,1.63
2023-12-27T13:21:28.020Z,1.80
2023-12-27T13:23:55.278Z,2.60
2023-12-27T13:26:22.188Z,1.93
2023-12-27T13:28:49.122Z,2.63
2023-12-27T13:31:17.054Z,2.73
2023-12-27T13:33:44.172Z,2.13
2023-12-27T13:36:11.171Z,2.40
2023-12-27T13:38:37.974Z,2.07
2023-12-27T13:41:05.010Z,2.63
2023-12-27T13:43:31.821Z,1.93
2023-12-27T13:45:58.789Z,2.13
2023-12-27T13:48:25.829Z,2.50
2023-12-27T13:50:54.590Z,2.57
2023-12-27T13:53:21.412Z,3.10
2023-12-27T13:55:48.429Z,2.60
2023-12-27T13:58:15.385Z,2.67
2023-12-27T14:00:42.501Z,3.47
2023-12-27T14:03:11.086Z,2.40
2023-12-27T14:05:41.464Z,2.93
2023-12-27T14:08:08.501Z,2.63
2023-12-27T14:10:35.764Z,2.97
2023-12-27T14:13:02.574Z,2.87
2023-12-27T14:15:29.457Z,2.40
2023-12-27T14:17:56.565Z,2.67
2023-12-27T14:20:23.649Z,2.17
2023-12-27T14:22:55.571Z,2.70
2023-12-27T14:25:22.346Z,3.03
2023-12-27T14:27:49.383Z,2.83
2023-12-27T14:30:16.410Z,2.93
2023-12-27T14:32:43.842Z,4.03
2023-12-27T14:35:11.078Z,3.33
2023-12-27T14:37:39.919Z,3.17
2023-12-27T14:40:08.029Z,3.80
2023-12-27T14:42:34.950Z,3.97
2023-12-27T14:45:01.814Z,2.70
2023-12-27T14:47:28.664Z,2.63
2023-12-27T14:49:55.741Z,4.47
2023-12-27T14:52:22.658Z,3.57
2023-12-27T14:54:49.519Z,3.30
2023-12-27T14:57:21.641Z,3.70
2023-12-27T14:59:48.642Z,4.10
2023-12-27T15:02:15.499Z,2.93
2023-12-27T15:04:42.514Z,3.13
2023-12-27T15:07:10.155Z,3.40
2023-12-27T15:09:38.037Z,3.63
2023-12-27T15:12:05.284Z,2.90
2023-12-27T15:14:32.290Z,2.80
2023-12-27T15:16:59.128Z,3.53
2023-12-27T15:19:26.028Z,3.10
2023-12-27T15:21:54.309Z,2.60
2023-12-27T15:24:21.278Z,3.20
2023-12-27T15:26:49.479Z,2.70
2023-12-27T15:29:16.791Z,2.97
2023-12-27T15:31:43.972Z,3.10
2023-12-27T15:34:12.285Z,2.73
2023-12-27T15:36:42.005Z,2.00
2023-12-27T15:39:09.726Z,2.70
2023-12-27T15:41:36.908Z,2.80
2023-12-27T15:44:05.068Z,2.87
2023-12-27T15:46:32.050Z,2.90
2023-12-27T15:48:59.423Z,2.63
2023-12-27T15:51:35.759Z,3.50
2023-12-27T15:54:07.784Z,3.10
2023-12-27T15:56:42.510Z,3.43
2023-12-27T15:59:09.357Z,2.40
2023-12-27T16:01:38.993Z,2.40
2023-12-27T16:04:08.767Z,3.00
2023-12-27T16:06:38.605Z,3.33
2023-12-27T16:09:05.954Z,2.80
2023-12-27T16:11:33.930Z,3.03
2023-12-27T16:14:01.693Z,2.73
2023-12-27T16:16:28.600Z,2.73
2023-12-27T16:18:55.831Z,3.07
2023-12-27T16:21:23.120Z,2.87
2023-12-27T16:23:50.737Z,3.87
2023-12-27T16:26:20.343Z,3.60
2023-12-27T16:28:48.734Z,2.40
2023-12-27T16:31:15.990Z,3.37
2023-12-27T16:33:43.302Z,2.93
2023-12-27T16:36:11.358Z,3.20
2023-12-27T16:38:40.850Z,3.63
2023-12-27T16:41:08.085Z,2.63
2023-12-27T16:43:40.359Z,3.20
2023-12-27T16:46:09.581Z,3.40
2023-12-27T16:48:36.525Z,3.27
2023-12-27T16:51:04.079Z,3.33
2023-12-27T16:53:31.026Z,3.40
2023-12-27T16:55:57.875Z,2.83
2023-12-27T16:58:24.703Z,3.43
2023-12-27T17:00:51.613Z,3.67
2023-12-27T17:03:18.825Z,3.17
2023-12-27T17:05:47.568Z,2.63
2023-12-27T17:08:15.749Z,2.53
2023-12-27T17:10:42.625Z,2.40
2023-12-27T17:13:09.593Z,2.60
2023-12-27T17:15:38.726Z,2.63
2023-12-27T17:18:06.431Z,2.53
2023-12-27T17:20:33.469Z,2.60
2023-12-27T17:23:00.494Z,2.57
2023-12-27T17:25:28.837Z,2.80
2023-12-27T17:27:57.392Z,2.57
2023-12-27T17:30:24.814Z,2.17
2023-12-27T17:32:51.964Z,2.57
2023-12-27T17:35:20.599Z,2.47
2023-12-27T17:37:48.413Z,3.00
2023-12-27T17:40:15.791Z,2.40
2023-12-27T17:42:42.831Z,3.50
2023-12-27T17:45:12.381Z,3.60
2023-12-27T17:47:40.965Z,2.40
2023-12-27T17:50:09.442Z,3.30
2023-12-27T17:52:36.795Z,3.17
2023-12-27T17:55:04.107Z,3.63
2023-12-27T17:57:35.632Z,2.90
2023-12-27T18:00:05.433Z,3.20
2023-12-27T18:02:33.599Z,3.10
2023-12-27T18:05:00.647Z,3.00
2023-12-27T18:07:28.699Z,3.30
2023-12-27T18:09:55.710Z,2.60
2023-12-27T18:12:22.658Z,2.77
2023-12-27T18:14:54.166Z,2.97
2023-12-27T18:17:21.476Z,3.57
2023-12-27T18:19:48.630Z,2.33
2023-12-27T18:22:15.864Z,2.70
2023-12-27T18:24:42.860Z,2.93
2023-12-27T18:27:10.197Z,2.77
2023-12-27T18:29:38.304Z,2.97
2023-12-27T18:32:06.510Z,2.60
2023-12-27T18:34:38.975Z,2.57
2023-12-27T18:37:06.606Z,3.03
2023-12-27T18:39:33.969Z,3.50
2023-12-27T18:42:01.359Z,2.80
2023-12-27T18:44:29.409Z,3.30
2023-12-27T18:46:56.397Z,3.10
2023-12-27T18:49:23.448Z,3.37
2023-12-27T18:51:51.589Z,3.23
2023-12-27T18:54:18.651Z,3.43
2023-12-27T18:56:45.613Z,3.40
2023-12-27T18:59:13.249Z,3.23
2023-12-27T19:01:40.226Z,3.63
2023-12-27T19:04:07.537Z,2.90
2023-12-27T19:06:34.687Z,4.37
2023-12-27T19:09:01.821Z,3.63
2023-12-27T19:11:31.754Z,3.57
2023-12-27T19:14:00.689Z,3.20
2023-12-27T19:16:28.729Z,3.20
2023-12-27T19:18:57.222Z,3.50
2023-12-27T19:21:24.556Z,3.70
2023-12-27T19:23:51.506Z,3.30
2023-12-27T19:26:21.270Z,3.00
2023-12-27T19:28:51.106Z,3.33
2023-12-27T19:31:18.288Z,3.70
2023-12-27T19:33:45.419Z,3.90
2023-12-27T19:36:13.239Z,3.30
2023-12-27T19:38:40.257Z,3.97
2023-12-27T19:41:07.345Z,3.20
2023-12-27T19:43:35.098Z,3.57
2023-12-27T19:46:02.485Z,4.20
2023-12-27T19:48:30.636Z,3.60
2023-12-27T19:50:58.154Z,4.43
2023-12-27T19:53:25.104Z,4.27
2023-12-27T19:55:52.459Z,4.50
2023-12-27T19:58:20.079Z,3.60
2023-12-27T20:00:48.042Z,4.00
2023-12-27T20:03:15.527Z,4.13
2023-12-27T20:05:43.734Z,5.07
2023-12-27T20:08:11.236Z,4.97
2023-12-27T20:10:38.548Z,4.83
2023-12-27T20:13:06.497Z,4.70
2023-12-27T20:15:47.366Z,3.70
2023-12-27T20:18:17.315Z,4.30
2023-12-27T20:20:44.834Z,3.87
2023-12-27T20:23:13.038Z,5.47
2023-12-27T20:25:40.597Z,5.20
2023-12-27T20:28:11.175Z,5.47
2023-12-27T20:30:38.393Z,5.33
2023-12-27T20:33:05.886Z,4.80
2023-12-27T20:35:37.630Z,4.37
2023-12-27T20:38:05.637Z,4.73
2023-12-27T20:40:32.730Z,5.20
2023-12-27T20:42:59.773Z,5.30
2023-12-27T20:45:26.939Z,5.17
2023-12-27T20:47:54.199Z,5.17
2023-12-27T20:50:22.018Z,5.17
2023-12-27T20:52:49.257Z,4.77
2023-12-27T20:55:16.802Z,5.33
2023-12-27T20:57:46.462Z,5.33
2023-12-27T21:00:14.415Z,5.40
2023-12-27T21:02:41.568Z,6.30
2023-12-27T21:05:09.032Z,5.87
2023-12-27T21:07:38.114Z,5.47
2023-12-27T21:10:06.089Z,5.60
2023-12-27T21:12:39.211Z,5.40
2023-12-27T21:15:10.672Z,5.67
2023-12-27T21:17:40.646Z,5.50
2023-12-27T21:20:08.214Z,6.40
2023-12-27T21:22:35.694Z,5.73
2023-12-27T21:25:04.307Z,5.60
2023-12-27T21:27:31.402Z,5.83
2023-12-27T21:30:01.208Z,6.60
2023-12-27T21:32:29.282Z,6.13
2023-12-27T21:34:56.569Z,5.10
2023-12-27T21:37:23.475Z,5.33
2023-12-27T21:39:50.583Z,5.83
2023-12-27T21:42:17.670Z,4.90
2023-12-27T21:44:44.623Z,5.50
2023-12-27T21:47:11.495Z,5.10
2023-12-27T21:49:38.502Z,5.40
2023-12-27T21:52:06.732Z,5.50
2023-12-27T21:54:33.722Z,6.60
2023-12-27T21:57:00.670Z,5.97
2023-12-27T21:59:27.673Z,5.80
2023-12-27T22:01:55.013Z,6.03
2023-12-27T22:04:21.976Z,5.73
2023-12-27T22:06:49.559Z,5.83
2023-12-27T22:09:16.608Z,4.80
2023-12-27T22:11:43.580Z,5.57
2023-12-27T22:14:10.493Z,5.40
2023-12-27T22:16:37.388Z,6.17
2023-12-27T22:19:04.470Z,5.90
2023-12-27T22:21:31.871Z,6.10
2023-12-27T22:23:59.191Z,5.90
2023-12-27T22:26:26.141Z,6.00
2023-12-27T22:28:53.503Z,6.77
2023-12-27T22:31:22.209Z,6.63
2023-12-27T22:33:49.462Z,6.27
2023-12-27T22:36:22.114Z,6.20
2023-12-27T22:38:51.476Z,6.63
2023-12-27T22:41:18.375Z,6.30
2023-12-27T22:43:45.723Z,5.27
2023-12-27T22:46:13.053Z,5.37
2023-12-27T22:48:40.004Z,5.60
2023-12-27T22:51:06.900Z,6.43
2023-12-27T22:53:33.686Z,5.60
2023-12-27T22:56:00.497Z,5.57
2023-12-27T22:58:27.289Z,5.70
2023-12-27T23:00:54.155Z,6.07
2023-12-27T23:03:22.066Z,5.70
2023-12-27T23:05:49.622Z,4.80
2023-12-27T23:08:17.579Z,6.50
2023-12-27T23:10:44.481Z,4.77
2023-12-27T23:13:11.291Z,5.67
2023-12-27T23:15:38.279Z,6.67
2023-12-27T23:18:05.489Z,5.60
2023-12-27T23:20:32.726Z,4.83
2023-12-27T23:22:59.588Z,5.33
2023-12-27T23:25:26.413Z,5.43
2023-12-27T23:27:53.882Z,5.57
2023-12-27T23:30:20.783Z,5.87
2023-12-27T23:32:51.294Z,5.33
2023-12-27T23:35:18.799Z,5.80
2023-12-27T23:37:45.617Z,4.73
2023-12-27T23:40:12.765Z,5.30
2023-12-27T23:42:39.837Z,5.20
2023-12-27T23:45:07.193Z,5.07
2023-12-27T23:47:34.083Z,5.30
2023-12-27T23:50:01.005Z,4.77
2023-12-27T23:52:27.875Z,5.40
2023-12-27T23:54:54.721Z,5.30
2023-12-27T23:57:21.494Z,5.00
2023-12-27T23:59:48.271Z,6.00
